Auburn, AL

7:38 AM CDT on April 19, 2015 (GMT -0500)
Moore's Mill | | Change Station
CLOSE
Current Station
Personal Weather Station
Location: Auburn, AL
Elevation: 640 ft
Nearby Weather Stations
Active Advisory: Tornado Watch

Elev 640 ft 32.58 °N, 85.45 °W | Updated 6 minutes ago

Rain
Rain
68.5 °F
Feels Like 68.5 °F
N
1.7
Wind Variable Wind from ESE

Today
High -- | Low -- °F
--% Chance of Precip.
Yesterday
High -- | Low -- °F
Precip. -- in
6:08 AM 7:14 PM
New Moon, 1% visible
Pressure 29.83 in
Visibility 2.5 miles
Clouds Mostly Cloudy 300 ft
Overcast 1400 ft
Dew Point 68 °F
Humidity 99%
Rainfall 0.35 in
Snow Depth Not available.
UV 0 out of 12
Pollen 4.70 out of 12
Air Quality Not available.
Flu Activity Sporadic
METAR KAUO 191235Z AUTO 14009KT 2 1/2SM BKN003 OVC014 19/18 A2983 RMK AO1 P0015

More Conditions Fewer Conditions

Pressure 29.83 in
Visibility 2.5 miles
Clouds Mostly Cloudy 300 ft
Overcast 1400 ft
Dew Point 68 °F
Humidity 99%
Rainfall 0.35 in
Snow Depth Not available.
UV 0 out of 12
Pollen 4.70 out of 12
Air Quality Not available.
Flu Activity Sporadic
METAR KAUO 191235Z AUTO 14009KT 2 1/2SM BKN003 OVC014 19/18 A2983 RMK AO1 P0015

More Conditions Fewer Conditions

10-Day Weather Forecast

Almanac

Astronomy

Apr. 19, 2015 Rise Set
Actual Time
Civil Twilight
Nautical Twilight
Astronomical Twilight
Moon
Length of Visible Light
Length of Day
Tomorrow will be .
, % of the Moon is Illuminated

Today's Extremes

State Highs State Lows

Community

WunderPhotos

Upload Photos

1,814,771 photos uploaded!

WunderBlogs® & News

Nearby

Air Quality

  Air Quality AQ Index Pollutant
Not available.

Snow Depth

Station Depth Elevation

Earthquake Activity

City Distance Mag. Time & Date
Minimum magnitude displayed is 2.5.

Coastal Water Temperatures

Place Temperature

Stations

Nearby Weather Stations

Station Location Temp. Windchill Dew Point Humidity Wind Precip. Elev Updated Type
                   
Tornado Watch
Statement as of 8:24 AM EDT on April 19, 2015

Tornado Watch 78 remains in effect until 300 PM EDT for the
following locations


Al
. Alabama counties included are

Barbour Bullock Butler
Chambers Clay Coffee
Conecuh Covington Crenshaw
Dale Elmore Escambia
Geneva Henry Houston
Lee Macon Montgomery
Pike Randolph Russell
Tallapoosa